Time;durP1;ratioP1;P1;durP2;ratioP2;P2;SDS_P1;SDS_P2;PMS_P1;PMS_P2;Temp;Humidity;BMP_temperature;BMP_pressure;BME280_temperature;BME280_humidity;BME280_pressure;Samples;Min_cycle;Max_cycle;Signal;HPM_P1;HPM_P2
2023/04/17 00:00:33;;;;;;;76.40;18.43;;;;;;;;;;5073569;28;20451;-69
2023/04/17 00:03:01;;;;;;;79.40;19.90;;;;;;;;;;5073688;28;20453;-69
2023/04/17 00:05:30;;;;;;;78.13;19.57;;;;;;;;;;5073693;28;20830;-68
2023/04/17 00:07:58;;;;;;;74.67;18.73;;;;;;;;;;5073309;28;20452;-69
2023/04/17 00:10:25;;;;;;;82.03;20.10;;;;;;;;;;5073166;28;20454;-69
2023/04/17 00:12:53;;;;;;;79.03;19.70;;;;;;;;;;5073170;28;20482;-68
2023/04/17 00:15:21;;;;;;;77.17;19.77;;;;;;;;;;5073278;28;20453;-69
2023/04/17 00:17:48;;;;;;;77.93;19.93;;;;;;;;;;5073383;28;20448;-69
2023/04/17 00:20:15;;;;;;;78.20;20.40;;;;;;;;;;5072803;28;20463;-69
2023/04/17 00:22:42;;;;;;;78.23;20.00;;;;;;;;;;5072981;28;20976;-69
2023/04/17 00:25:11;;;;;;;78.80;20.93;;;;;;;;;;5072993;28;20455;-69
2023/04/17 00:27:38;;;;;;;77.97;20.23;;;;;;;;;;5073224;28;20454;-70
2023/04/17 00:30:06;;;;;;;78.87;19.93;;;;;;;;;;5072611;28;20467;-69
2023/04/17 00:32:35;;;;;;;77.87;20.63;;;;;;;;;;5073060;28;20483;-69
2023/04/17 00:35:02;;;;;;;77.40;19.80;;;;;;;;;;5072862;28;20453;-69
2023/04/17 00:37:29;;;;;;;82.50;19.17;;;;;;;;;;5072808;28;20462;-69
2023/04/17 00:39:56;;;;;;;79.00;19.60;;;;;;;;;;5072301;28;20490;-69
2023/04/17 00:42:23;;;;;;;79.47;20.20;;;;;;;;;;5072709;28;20940;-69
2023/04/17 00:44:50;;;;;;;76.57;19.80;;;;;;;;;;5072850;28;20450;-69
2023/04/17 00:47:18;;;;;;;79.20;19.90;;;;;;;;;;5072739;28;20563;-69
2023/04/17 00:49:46;;;;;;;78.37;19.10;;;;;;;;;;5072139;28;21002;-70
2023/04/17 00:52:14;;;;;;;81.03;21.23;;;;;;;;;;5072247;28;20479;-69
2023/04/17 00:54:42;;;;;;;81.50;18.80;;;;;;;;;;5072708;28;20451;-69
2023/04/17 00:57:09;;;;;;;79.37;20.50;;;;;;;;;;5072596;28;20455;-69
2023/04/17 00:59:36;;;;;;;83.73;20.43;;;;;;;;;;5072163;28;20475;-69
2023/04/17 01:02:04;;;;;;;80.23;19.57;;;;;;;;;;5072445;28;20447;-70
2023/04/17 01:04:31;;;;;;;82.43;20.20;;;;;;;;;;5072369;28;20455;-69
2023/04/17 01:06:59;;;;;;;83.10;19.70;;;;;;;;;;5072173;28;20446;-69
2023/04/17 01:09:26;;;;;;;79.03;20.20;;;;;;;;;;5071887;28;20536;-69
2023/04/17 01:11:53;;;;;;;78.90;20.30;;;;;;;;;;5072134;28;21113;-69
2023/04/17 01:14:20;;;;;;;80.87;19.87;;;;;;;;;;5072336;28;20443;-69
2023/04/17 01:16:47;;;;;;;80.67;19.60;;;;;;;;;;5072297;28;20628;-68
2023/04/17 01:19:15;;;;;;;81.33;20.00;;;;;;;;;;5071639;28;20464;-69
2023/04/17 01:21:42;;;;;;;76.57;18.90;;;;;;;;;;5072296;28;20455;-69
2023/04/17 01:24:11;;;;;;;79.87;19.37;;;;;;;;;;5072077;28;20458;-69
2023/04/17 01:26:40;;;;;;;81.47;19.17;;;;;;;;;;5072170;28;20485;-68
2023/04/17 01:29:07;;;;;;;79.37;19.60;;;;;;;;;;5071984;28;20562;-69
2023/04/17 01:31:34;;;;;;;79.70;19.67;;;;;;;;;;5071855;28;20497;-69
2023/04/17 01:34:01;;;;;;;81.57;20.90;;;;;;;;;;5070233;28;20444;-68
2023/04/17 01:36:28;;;;;;;80.80;20.23;;;;;;;;;;5071851;28;20454;-69
2023/04/17 01:38:55;;;;;;;80.87;20.70;;;;;;;;;;5071494;28;20475;-69
2023/04/17 01:41:24;;;;;;;81.07;21.97;;;;;;;;;;5071749;28;20451;-70
2023/04/17 01:43:51;;;;;;;83.00;21.57;;;;;;;;;;5072241;28;20443;-69
2023/04/17 01:46:18;;;;;;;80.70;20.20;;;;;;;;;;5071971;28;20443;-69
2023/04/17 01:48:45;;;;;;;79.33;20.83;;;;;;;;;;5071295;28;20987;-69
2023/04/17 01:51:12;;;;;;;85.57;20.90;;;;;;;;;;5071862;28;20538;-69
2023/04/17 01:53:40;;;;;;;78.43;20.47;;;;;;;;;;5071677;28;20493;-68
2023/04/17 01:56:08;;;;;;;81.50;20.80;;;;;;;;;;5071641;28;20443;-69
2023/04/17 01:58:36;;;;;;;81.57;20.20;;;;;;;;;;5071464;28;20467;-69
2023/04/17 02:01:04;;;;;;;86.73;22.57;;;;;;;;;;5071775;28;20443;-68
2023/04/17 02:03:31;;;;;;;80.47;21.43;;;;;;;;;;5071669;28;20453;-68
2023/04/17 02:05:58;;;;;;;84.90;22.47;;;;;;;;;;5075852;28;20477;-69
2023/04/17 02:08:25;;;;;;;82.00;21.60;;;;;;;;;;5075499;28;20473;-70
2023/04/17 02:10:53;;;;;;;85.10;21.30;;;;;;;;;;5075676;28;20819;-69
2023/04/17 02:13:20;;;;;;;84.20;22.33;;;;;;;;;;5075694;28;20574;-69
2023/04/17 02:15:48;;;;;;;83.50;23.17;;;;;;;;;;5075594;28;20952;-69
2023/04/17 02:18:15;;;;;;;82.83;21.23;;;;;;;;;;5075440;28;20466;-70
2023/04/17 02:20:42;;;;;;;83.40;21.47;;;;;;;;;;5075298;28;20451;-69
2023/04/17 02:23:11;;;;;;;81.57;21.90;;;;;;;;;;5075526;28;20463;-69
2023/04/17 02:25:38;;;;;;;83.43;22.83;;;;;;;;;;5075564;28;20801;-69
2023/04/17 02:28:05;;;;;;;88.43;23.67;;;;;;;;;;5075304;28;20455;-69
2023/04/17 02:30:32;;;;;;;87.07;21.67;;;;;;;;;;5074970;28;20477;-69
2023/04/17 02:33:01;;;;;;;85.77;23.37;;;;;;;;;;5075154;28;20987;-69
2023/04/17 02:35:29;;;;;;;84.23;22.27;;;;;;;;;;5075024;28;20482;-69
2023/04/17 02:37:56;;;;;;;84.50;23.23;;;;;;;;;;5074915;28;20936;-69
2023/04/17 02:40:23;;;;;;;84.57;22.93;;;;;;;;;;5075052;28;20454;-69
2023/04/17 02:42:50;;;;;;;84.20;22.97;;;;;;;;;;5074968;28;20963;-69
2023/04/17 02:45:17;;;;;;;83.40;23.37;;;;;;;;;;5075069;28;20439;-69
2023/04/17 02:47:44;;;;;;;84.17;23.80;;;;;;;;;;5075419;28;20851;-69
2023/04/17 02:50:13;;;;;;;86.80;22.57;;;;;;;;;;5074391;28;20467;-69
2023/04/17 02:52:41;;;;;;;83.70;21.90;;;;;;;;;;5074739;28;20486;-70
2023/04/17 02:55:08;;;;;;;85.53;23.70;;;;;;;;;;5074797;28;20959;-69
2023/04/17 02:57:35;;;;;;;81.63;21.80;;;;;;;;;;5074967;28;20443;-69
2023/04/17 03:00:06;;;;;;;86.53;23.23;;;;;;;;;;5074271;28;20471;-70
2023/04/17 03:02:33;;;;;;;89.33;23.70;;;;;;;;;;5074669;28;20526;-69
2023/04/17 03:05:03;;;;;;;86.57;22.93;;;;;;;;;;5074906;28;20451;-69
2023/04/17 03:07:31;;;;;;;82.77;22.30;;;;;;;;;;5074712;28;20443;-68
2023/04/17 03:09:58;;;;;;;84.47;21.87;;;;;;;;;;5074288;28;21018;-68
2023/04/17 03:12:26;;;;;;;86.70;23.00;;;;;;;;;;5074528;28;20481;-69
2023/04/17 03:14:53;;;;;;;85.07;22.83;;;;;;;;;;5073976;28;20454;-68
2023/04/17 03:17:20;;;;;;;84.40;21.40;;;;;;;;;;5073637;28;20462;-68
2023/04/17 03:19:47;;;;;;;89.03;24.70;;;;;;;;;;5074170;28;20496;-70
2023/04/17 03:22:14;;;;;;;89.10;25.23;;;;;;;;;;5074467;28;20443;-69
2023/04/17 03:24:42;;;;;;;83.73;21.83;;;;;;;;;;5074499;28;20455;-69
2023/04/17 03:27:10;;;;;;;89.80;24.00;;;;;;;;;;5074708;28;20443;-69
2023/04/17 03:29:37;;;;;;;87.17;22.97;;;;;;;;;;5073650;28;20479;-68
2023/04/17 03:32:04;;;;;;;88.73;25.53;;;;;;;;;;5074456;28;20850;-68
2023/04/17 03:34:31;;;;;;;85.80;23.27;;;;;;;;;;5074292;28;20479;-69
2023/04/17 03:36:58;;;;;;;89.20;23.80;;;;;;;;;;5074188;28;20443;-69
2023/04/17 03:39:26;;;;;;;86.93;23.30;;;;;;;;;;5073730;28;20471;-69
2023/04/17 03:41:55;;;;;;;89.77;23.27;;;;;;;;;;5074058;28;20451;-68
2023/04/17 03:44:22;;;;;;;86.37;24.53;;;;;;;;;;5073809;28;20497;-69
2023/04/17 03:46:49;;;;;;;87.10;23.90;;;;;;;;;;5074026;28;20809;-69
2023/04/17 03:49:16;;;;;;;83.47;22.00;;;;;;;;;;5073404;28;20601;-69
2023/04/17 03:51:43;;;;;;;89.67;24.67;;;;;;;;;;5073918;28;20451;-68
2023/04/17 03:54:10;;;;;;;91.07;25.20;;;;;;;;;;5073733;28;20487;-69
2023/04/17 03:56:38;;;;;;;88.90;24.20;;;;;;;;;;5073703;28;20521;-69
2023/04/17 03:59:06;;;;;;;85.37;24.00;;;;;;;;;;5073188;28;20466;-68
2023/04/17 04:01:37;;;;;;;85.77;22.73;;;;;;;;;;5073789;28;20443;-69
2023/04/17 04:04:04;;;;;;;87.77;24.43;;;;;;;;;;5073581;28;20586;-69
2023/04/17 04:06:31;;;;;;;86.70;23.70;;;;;;;;;;5073624;28;20447;-69
2023/04/17 04:08:58;;;;;;;89.17;25.37;;;;;;;;;;5073143;28;20463;-68
2023/04/17 04:11:25;;;;;;;91.80;23.87;;;;;;;;;;5073313;28;20974;-68
2023/04/17 04:13:53;;;;;;;87.70;23.77;;;;;;;;;;5073414;28;20482;-69
2023/04/17 04:16:21;;;;;;;85.60;23.90;;;;;;;;;;5073439;28;20451;-68
2023/04/17 04:18:48;;;;;;;85.50;23.67;;;;;;;;;;5072962;28;20470;-69
2023/04/17 04:21:15;;;;;;;93.67;25.50;;;;;;;;;;5073162;28;20452;-69
2023/04/17 04:23:44;;;;;;;89.20;25.33;;;;;;;;;;5073061;28;20459;-68
2023/04/17 04:26:11;;;;;;;93.17;26.10;;;;;;;;;;5072882;28;20960;-69
2023/04/17 04:28:38;;;;;;;90.27;23.90;;;;;;;;;;5072493;28;20517;-68
2023/04/17 04:31:05;;;;;;;89.57;25.00;;;;;;;;;;5072976;28;20462;-68
2023/04/17 04:33:34;;;;;;;89.73;25.00;;;;;;;;;;5072969;28;20482;-69
2023/04/17 04:36:01;;;;;;;83.67;23.70;;;;;;;;;;5072908;28;20493;-69
2023/04/17 04:38:31;;;;;;;91.67;24.37;;;;;;;;;;5072570;28;20467;-69
2023/04/17 04:41:08;;;;;;;88.30;22.93;;;;;;;;;;5072974;28;20443;-68
2023/04/17 04:43:35;;;;;;;87.60;26.03;;;;;;;;;;5072667;28;20955;-68
2023/04/17 04:46:03;;;;;;;89.00;23.77;;;;;;;;;;5072813;28;20455;-69
2023/04/17 04:48:30;;;;;;;90.10;26.10;;;;;;;;;;5072377;28;21009;-69
2023/04/17 04:50:58;;;;;;;86.60;24.07;;;;;;;;;;5072452;28;20454;-68
2023/04/17 04:53:25;;;;;;;87.90;24.60;;;;;;;;;;5072460;28;21015;-69
2023/04/17 04:55:52;;;;;;;93.00;26.00;;;;;;;;;;5072717;28;20443;-69
2023/04/17 04:58:20;;;;;;;93.53;26.30;;;;;;;;;;5072401;28;20980;-69
2023/04/17 05:00:47;;;;;;;85.97;23.70;;;;;;;;;;5072198;28;20959;-68
2023/04/17 05:03:15;;;;;;;93.60;24.27;;;;;;;;;;5072702;28;20443;-69
2023/04/17 05:05:43;;;;;;;89.13;23.13;;;;;;;;;;5072514;28;20464;-69
2023/04/17 05:08:11;;;;;;;91.23;26.27;;;;;;;;;;5072355;28;20447;-69
2023/04/17 05:10:38;;;;;;;86.60;24.80;;;;;;;;;;5072131;28;20832;-69
2023/04/17 05:13:05;;;;;;;85.40;24.53;;;;;;;;;;5072200;28;20483;-69
2023/04/17 05:15:32;;;;;;;93.83;26.33;;;;;;;;;;5072121;28;20447;-69
2023/04/17 05:18:00;;;;;;;88.00;25.30;;;;;;;;;;5071911;28;20823;-69
2023/04/17 05:20:27;;;;;;;92.03;25.87;;;;;;;;;;5072035;28;20457;-69
2023/04/17 05:22:54;;;;;;;87.97;24.10;;;;;;;;;;5072201;28;20443;-69
2023/04/17 05:25:23;;;;;;;88.30;26.67;;;;;;;;;;5072098;28;20498;-69
2023/04/17 05:27:50;;;;;;;95.37;24.97;;;;;;;;;;5071997;28;20990;-68
2023/04/17 05:30:17;;;;;;;87.00;24.73;;;;;;;;;;5071620;28;20468;-69
2023/04/17 05:32:45;;;;;;;86.43;25.50;;;;;;;;;;5071894;28;20942;-69
2023/04/17 05:35:12;;;;;;;85.60;23.40;;;;;;;;;;5071927;28;20485;-69
2023/04/17 05:37:39;;;;;;;92.50;25.17;;;;;;;;;;5072096;28;20796;-69
2023/04/17 05:40:07;;;;;;;85.50;23.93;;;;;;;;;;5070912;28;20455;-69
2023/04/17 05:42:35;;;;;;;84.60;24.47;;;;;;;;;;5071838;28;20451;-68
2023/04/17 05:45:02;;;;;;;89.60;24.37;;;;;;;;;;5071774;28;20446;-69
2023/04/17 05:47:29;;;;;;;85.50;22.70;;;;;;;;;;5071897;28;20939;-69
2023/04/17 05:49:58;;;;;;;85.07;23.53;;;;;;;;;;5071590;28;20463;-69
2023/04/17 05:52:25;;;;;;;83.63;23.43;;;;;;;;;;5071756;28;20443;-69
2023/04/17 05:54:52;;;;;;;84.70;22.87;;;;;;;;;;5051578;28;20484;-68
2023/04/17 05:57:19;;;;;;;84.43;24.27;;;;;;;;;;5051705;28;20828;-69
2023/04/17 05:59:48;;;;;;;85.07;23.50;;;;;;;;;;5051137;28;20467;-69
2023/04/17 06:02:16;;;;;;;83.60;22.07;;;;;;;;;;5051881;28;20449;-69
2023/04/17 06:04:43;;;;;;;84.20;22.97;;;;;;;;;;5051736;28;20532;-69
2023/04/17 06:07:10;;;;;;;86.80;24.20;;;;;;;;;;5051550;28;20448;-68
2023/04/17 06:09:39;;;;;;;82.40;22.17;;;;;;;;;;5051513;28;20969;-68
2023/04/17 06:12:13;;;;;;;79.70;21.17;;;;;;;;;;5051409;28;20543;-68
2023/04/17 06:14:40;;;;;;;85.80;20.70;;;;;;;;;;5051648;28;20618;-68
2023/04/17 06:17:09;;;;;;;84.13;21.97;;;;;;;;;;5051447;28;20967;-68
2023/04/17 06:19:36;;;;;;;82.53;22.97;;;;;;;;;;5051231;28;20468;-68
2023/04/17 06:22:04;;;;;;;79.70;21.20;;;;;;;;;;5051449;28;20957;-68
2023/04/17 06:24:31;;;;;;;81.83;20.90;;;;;;;;;;5051322;28;20456;-68
2023/04/17 06:26:58;;;;;;;78.53;20.10;;;;;;;;;;5051514;28;20444;-67
2023/04/17 06:29:25;;;;;;;78.13;21.30;;;;;;;;;;5051184;28;20851;-68
2023/04/17 06:31:52;;;;;;;82.30;21.57;;;;;;;;;;5051521;28;20447;-68
2023/04/17 06:34:21;;;;;;;79.70;20.70;;;;;;;;;;5051349;28;20488;-68
2023/04/17 06:36:49;;;;;;;82.07;21.97;;;;;;;;;;5051365;28;20483;-68
2023/04/17 06:39:16;;;;;;;81.70;22.20;;;;;;;;;;5050794;28;20530;-67
2023/04/17 06:41:43;;;;;;;79.27;20.47;;;;;;;;;;5051447;28;20523;-68
2023/04/17 06:44:10;;;;;;;78.77;20.70;;;;;;;;;;5051414;28;20444;-68
2023/04/17 06:46:37;;;;;;;79.10;20.40;;;;;;;;;;5051356;28;20828;-68
2023/04/17 06:49:05;;;;;;;80.63;20.40;;;;;;;;;;5050869;28;20475;-69
2023/04/17 06:51:33;;;;;;;81.73;19.30;;;;;;;;;;5054515;28;20454;-68
2023/04/17 06:54:00;;;;;;;78.37;19.87;;;;;;;;;;5054879;28;20511;-68
2023/04/17 06:56:27;;;;;;;81.27;21.00;;;;;;;;;;5055013;28;20459;-69
2023/04/17 06:58:56;;;;;;;82.00;21.90;;;;;;;;;;5054338;28;20472;-68
2023/04/17 07:01:23;;;;;;;81.20;21.57;;;;;;;;;;5054840;28;20833;-68
2023/04/17 07:03:50;;;;;;;75.80;18.03;;;;;;;;;;5054706;28;20452;-68
2023/04/17 07:06:18;;;;;;;80.80;19.63;;;;;;;;;;5054567;28;20463;-69
2023/04/17 07:08:46;;;;;;;77.97;20.00;;;;;;;;;;5054171;28;20468;-68
2023/04/17 07:11:13;;;;;;;78.43;20.07;;;;;;;;;;5054744;28;20444;-69
2023/04/17 07:13:40;;;;;;;78.20;18.50;;;;;;;;;;5054437;28;20479;-68
2023/04/17 07:16:08;;;;;;;77.03;18.70;;;;;;;;;;5054590;28;20832;-68
2023/04/17 07:18:35;;;;;;;77.63;18.60;;;;;;;;;;5054077;28;20463;-68
2023/04/17 07:21:02;;;;;;;80.33;18.27;;;;;;;;;;5054314;28;20456;-68
2023/04/17 07:23:29;;;;;;;77.90;18.83;;;;;;;;;;5054393;28;20467;-68
2023/04/17 07:25:57;;;;;;;76.53;19.73;;;;;;;;;;5054415;28;20478;-69
2023/04/17 07:28:24;;;;;;;75.33;17.47;;;;;;;;;;5054089;28;20475;-68
2023/04/17 07:30:53;;;;;;;77.00;18.40;;;;;;;;;;5054096;28;20445;-69
2023/04/17 07:33:20;;;;;;;75.90;17.90;;;;;;;;;;5054039;28;20456;-68
2023/04/17 07:35:47;;;;;;;77.40;18.50;;;;;;;;;;5054273;28;20859;-68
2023/04/17 07:38:15;;;;;;;75.83;18.33;;;;;;;;;;5054073;28;20471;-68
2023/04/17 07:40:42;;;;;;;75.47;17.53;;;;;;;;;;5053988;28;20820;-67
2023/04/17 07:43:10;;;;;;;73.53;16.37;;;;;;;;;;5053887;28;20479;-68
2023/04/17 07:45:38;;;;;;;73.10;16.33;;;;;;;;;;5053890;28;20466;-68
2023/04/17 07:48:05;;;;;;;76.17;17.27;;;;;;;;;;5053618;28;20444;-68
2023/04/17 07:50:32;;;;;;;74.57;17.03;;;;;;;;;;5053793;28;20444;-68
2023/04/17 07:53:00;;;;;;;73.50;17.33;;;;;;;;;;5053982;28;20460;-68
2023/04/17 07:55:27;;;;;;;76.30;16.20;;;;;;;;;;5053719;28;20488;-68
2023/04/17 07:57:54;;;;;;;73.57;15.87;;;;;;;;;;5053710;28;20444;-68
2023/04/17 08:00:22;;;;;;;73.53;16.90;;;;;;;;;;5053325;28;20451;-68
2023/04/17 08:02:50;;;;;;;73.67;16.17;;;;;;;;;;5052743;28;20456;-68
2023/04/17 08:05:17;;;;;;;72.87;16.40;;;;;;;;;;5053760;28;20445;-69
2023/04/17 08:07:44;;;;;;;72.50;15.97;;;;;;;;;;5053480;28;20448;-68
2023/04/17 08:10:11;;;;;;;77.30;16.00;;;;;;;;;;5053079;28;20472;-68
2023/04/17 08:12:38;;;;;;;75.43;15.23;;;;;;;;;;5053501;28;20449;-68
2023/04/17 08:15:06;;;;;;;72.07;15.17;;;;;;;;;;5053176;28;21003;-69
2023/04/17 08:17:34;;;;;;;69.17;14.13;;;;;;;;;;5053559;28;20455;-68
2023/04/17 08:20:06;;;;;;;71.57;14.70;;;;;;;;;;5052570;28;20480;-68
2023/04/17 08:22:38;;;;;;;70.00;14.50;;;;;;;;;;5052760;28;20542;-68
2023/04/17 08:25:08;;;;;;;73.07;13.63;;;;;;;;;;5053134;28;20480;-69
2023/04/17 08:27:35;;;;;;;69.40;14.47;;;;;;;;;;5052977;28;20945;-68
2023/04/17 08:30:03;;;;;;;69.47;13.47;;;;;;;;;;5052690;28;20472;-68
2023/04/17 08:32:32;;;;;;;68.30;12.50;;;;;;;;;;5053205;28;20488;-68
2023/04/17 08:35:01;;;;;;;68.90;13.57;;;;;;;;;;5053000;28;20479;-69
2023/04/17 08:37:29;;;;;;;67.73;11.90;;;;;;;;;;5052817;28;20456;-69
2023/04/17 08:39:56;;;;;;;66.37;10.47;;;;;;;;;;5052516;28;21197;-69
2023/04/17 08:42:24;;;;;;;64.67;10.17;;;;;;;;;;5052787;28;20440;-68
2023/04/17 08:44:51;;;;;;;67.27;11.37;;;;;;;;;;5052809;28;20448;-69
2023/04/17 08:47:19;;;;;;;65.20;10.10;;;;;;;;;;5052745;28;20455;-69
2023/04/17 08:49:46;;;;;;;63.40;9.80;;;;;;;;;;5052467;28;20464;-68
2023/04/17 08:52:15;;;;;;;64.43;9.97;;;;;;;;;;5052637;28;20933;-69
2023/04/17 08:54:42;;;;;;;64.97;9.73;;;;;;;;;;5052330;28;20543;-69
2023/04/17 08:57:09;;;;;;;69.97;10.60;;;;;;;;;;5052574;28;20444;-68
2023/04/17 08:59:36;;;;;;;65.07;10.57;;;;;;;;;;5052229;28;20468;-69
2023/04/17 09:02:04;;;;;;;64.97;9.97;;;;;;;;;;5052687;28;20453;-69
2023/04/17 09:04:41;;;;;;;65.97;10.40;;;;;;;;;;5052778;28;20459;-69
2023/04/17 09:07:09;;;;;;;67.03;9.83;;;;;;;;;;5052359;28;20455;-68
2023/04/17 09:09:48;;;;;;;64.50;10.23;;;;;;;;;;5051991;28;20480;-69
2023/04/17 09:12:15;;;;;;;64.80;10.83;;;;;;;;;;5052474;28;20518;-69
2023/04/17 09:14:42;;;;;;;64.30;9.83;;;;;;;;;;5052274;28;20483;-69
2023/04/17 09:17:09;;;;;;;63.80;9.20;;;;;;;;;;5052702;28;20448;-69
2023/04/17 09:19:36;;;;;;;64.00;9.70;;;;;;;;;;5051792;28;20468;-69
2023/04/17 09:22:19;;;;;;;64.60;9.83;;;;;;;;;;5052351;28;20451;-69
2023/04/17 09:24:48;;;;;;;63.30;8.67;;;;;;;;;;5052096;28;20464;-69
2023/04/17 09:27:21;;;;;;;64.00;8.70;;;;;;;;;;5052201;28;20439;-69
2023/04/17 09:29:59;;;;;;;62.53;8.97;;;;;;;;;;5051706;28;20473;-68
2023/04/17 09:32:27;;;;;;;64.97;8.90;;;;;;;;;;5051936;28;20542;-69
2023/04/17 09:34:55;;;;;;;64.00;9.80;;;;;;;;;;5051893;28;20490;-69
2023/04/17 09:37:23;;;;;;;65.40;8.90;;;;;;;;;;5052086;28;20452;-69
2023/04/17 09:40:01;;;;;;;63.97;9.73;;;;;;;;;;5051716;28;20507;-69
2023/04/17 09:42:28;;;;;;;63.37;8.73;;;;;;;;;;5051920;28;20456;-68
2023/04/17 09:44:56;;;;;;;63.93;8.93;;;;;;;;;;5051812;28;20444;-68
2023/04/17 09:47:24;;;;;;;63.70;8.47;;;;;;;;;;5052113;28;20452;-69
2023/04/17 09:49:52;;;;;;;63.47;8.80;;;;;;;;;;5051656;28;20510;-69
2023/04/17 09:52:22;;;;;;;64.80;9.47;;;;;;;;;;5051681;28;20444;-69
2023/04/17 09:54:50;;;;;;;64.53;8.50;;;;;;;;;;5051907;28;20476;-69
2023/04/17 09:57:18;;;;;;;63.47;8.53;;;;;;;;;;5051574;28;20444;-69
2023/04/17 09:59:47;;;;;;;62.10;7.97;;;;;;;;;;5051231;28;20464;-69
2023/04/17 10:02:15;;;;;;;62.40;7.90;;;;;;;;;;5051777;28;20461;-69
2023/04/17 10:04:42;;;;;;;64.10;8.10;;;;;;;;;;5051714;28;20531;-69
2023/04/17 10:07:10;;;;;;;61.40;7.30;;;;;;;;;;5051457;28;20539;-69
2023/04/17 10:09:38;;;;;;;62.53;8.50;;;;;;;;;;5051074;28;20563;-69
2023/04/17 10:12:06;;;;;;;64.37;8.93;;;;;;;;;;5051534;28;20518;-69
2023/04/17 10:14:37;;;;;;;62.77;7.70;;;;;;;;;;5051569;28;20460;-69
2023/04/17 10:17:19;;;;;;;63.10;8.60;;;;;;;;;;5051494;28;20552;-69
2023/04/17 10:19:46;;;;;;;62.70;8.17;;;;;;;;;;5050947;28;20474;-69
2023/04/17 10:22:29;;;;;;;61.70;7.43;;;;;;;;;;5051289;28;20451;-69
2023/04/17 10:25:16;;;;;;;62.30;6.80;;;;;;;;;;5052168;28;20459;-69
2023/04/17 10:27:44;;;;;;;61.73;7.47;;;;;;;;;;5055327;28;20454;-69
2023/04/17 10:30:13;;;;;;;62.07;7.77;;;;;;;;;;5054950;28;20471;-69
2023/04/17 10:32:40;;;;;;;62.80;7.30;;;;;;;;;;5055170;28;20834;-69
2023/04/17 10:35:22;;;;;;;61.20;6.70;;;;;;;;;;5055300;28;20487;-69
2023/04/17 10:38:02;;;;;;;62.63;7.40;;;;;;;;;;5055066;28;20444;-69
2023/04/17 10:40:31;;;;;;;62.93;6.80;;;;;;;;;;5054965;28;20454;-69
2023/04/17 10:43:02;;;;;;;61.47;7.07;;;;;;;;;;5055054;28;20543;-69
2023/04/17 10:45:52;;;;;;;61.70;6.50;;;;;;;;;;5055266;28;20466;-69
2023/04/17 10:48:26;;;;;;;62.20;7.10;;;;;;;;;;5054912;28;20999;-69
2023/04/17 10:50:54;;;;;;;61.77;7.23;;;;;;;;;;5054695;28;20940;-69
2023/04/17 10:53:36;;;;;;;61.23;6.63;;;;;;;;;;5054877;28;20865;-69
2023/04/17 10:56:03;;;;;;;62.30;6.40;;;;;;;;;;5055038;28;20490;-69
2023/04/17 10:58:30;;;;;;;63.37;9.27;;;;;;;;;;5054596;28;20474;-69
2023/04/17 11:01:02;;;;;;;60.43;6.60;;;;;;;;;;5054748;28;20454;-69
2023/04/17 11:03:30;;;;;;;61.50;6.30;;;;;;;;;;5054877;28;20455;-69
2023/04/17 11:05:59;;;;;;;61.30;6.27;;;;;;;;;;5054553;28;20818;-69
2023/04/17 11:08:26;;;;;;;62.87;6.37;;;;;;;;;;5054660;28;20477;-69
2023/04/17 11:10:54;;;;;;;60.63;6.03;;;;;;;;;;5054559;28;20538;-69
2023/04/17 11:13:21;;;;;;;59.83;5.93;;;;;;;;;;5054636;28;20538;-69
2023/04/17 11:15:48;;;;;;;60.10;6.00;;;;;;;;;;5054378;28;21003;-69
2023/04/17 11:18:17;;;;;;;60.00;6.07;;;;;;;;;;5054270;28;20472;-69
2023/04/17 11:20:45;;;;;;;62.70;6.07;;;;;;;;;;5054342;28;20824;-69
2023/04/17 11:23:12;;;;;;;59.90;5.87;;;;;;;;;;5054390;28;20448;-68
2023/04/17 11:25:40;;;;;;;59.93;5.90;;;;;;;;;;5054449;28;20994;-68
2023/04/17 11:28:07;;;;;;;62.17;6.10;;;;;;;;;;5054161;28;20805;-68
2023/04/17 11:30:35;;;;;;;63.27;6.60;;;;;;;;;;5053818;28;20452;-69
2023/04/17 11:33:03;;;;;;;60.90;6.33;;;;;;;;;;5054073;28;20445;-68
2023/04/17 11:35:33;;;;;;;60.33;5.97;;;;;;;;;;5053879;28;20502;-68
2023/04/17 11:38:07;;;;;;;59.63;5.57;;;;;;;;;;5052900;28;20543;-68
2023/04/17 11:40:34;;;;;;;60.50;5.83;;;;;;;;;;5053936;28;20456;-68
2023/04/17 11:43:07;;;;;;;60.30;6.50;;;;;;;;;;5054016;28;20448;-68
2023/04/17 11:45:36;;;;;;;60.10;5.60;;;;;;;;;;5053768;28;20535;-68
2023/04/17 11:48:03;;;;;;;60.17;5.50;;;;;;;;;;5053847;28;20451;-68
2023/04/17 11:50:31;;;;;;;62.40;6.77;;;;;;;;;;5053568;28;20452;-68
2023/04/17 11:53:00;;;;;;;60.40;6.03;;;;;;;;;;5053930;28;20484;-68
2023/04/17 11:55:30;;;;;;;61.17;6.67;;;;;;;;;;5053705;28;20476;-68
2023/04/17 11:57:58;;;;;;;61.13;6.80;;;;;;;;;;5053478;28;20475;-68
2023/04/17 12:00:28;;;;;;;62.13;6.90;;;;;;;;;;5053372;28;20452;-68
2023/04/17 12:02:56;;;;;;;62.10;6.97;;;;;;;;;;5053570;28;20454;-68
2023/04/17 12:05:23;;;;;;;61.30;7.20;;;;;;;;;;5053679;28;20448;-68
2023/04/17 12:08:01;;;;;;;64.80;7.80;;;;;;;;;;5053448;28;20448;-68
2023/04/17 12:10:38;;;;;;;62.30;7.23;;;;;;;;;;5053211;28;20474;-68
2023/04/17 12:13:05;;;;;;;71.50;18.20;;;;;;;;;;5062113;28;20454;-68
2023/04/17 12:15:32;;;;;;;61.00;6.43;;;;;;;;;;5072420;28;20483;-68
2023/04/17 12:18:01;;;;;;;62.10;7.60;;;;;;;;;;5072247;28;20633;-67
2023/04/17 12:20:29;;;;;;;61.90;7.60;;;;;;;;;;5072079;28;20454;-68
2023/04/17 12:22:56;;;;;;;62.60;7.87;;;;;;;;;;5072132;28;20455;-68
2023/04/17 12:25:24;;;;;;;62.60;8.20;;;;;;;;;;5072202;28;20451;-68
2023/04/17 12:27:51;;;;;;;63.80;8.70;;;;;;;;;;5072970;28;20448;-68
2023/04/17 12:30:18;;;;;;;61.27;7.20;;;;;;;;;;5066250;28;20476;-68
2023/04/17 12:32:47;;;;;;;318.20;160.93;;;;;;;;;;5052463;28;20864;-68
2023/04/17 12:35:15;;;;;;;67.30;10.97;;;;;;;;;;5052613;28;20452;-68
2023/04/17 12:37:47;;;;;;;64.27;10.97;;;;;;;;;;5052235;28;20858;-66
2023/04/17 12:40:14;;;;;;;61.50;7.87;;;;;;;;;;5052487;28;20522;-66
2023/04/17 12:42:42;;;;;;;61.70;7.60;;;;;;;;;;5054268;28;20965;-68
2023/04/17 12:45:10;;;;;;;62.23;8.07;;;;;;;;;;5072533;28;20470;-69
2023/04/17 12:47:37;;;;;;;62.70;8.07;;;;;;;;;;5072086;28;20451;-69
2023/04/17 12:50:05;;;;;;;61.57;8.10;;;;;;;;;;5071749;28;20498;-66
2023/04/17 12:52:32;;;;;;;61.40;7.30;;;;;;;;;;5072300;28;20534;-68
2023/04/17 12:55:00;;;;;;;62.23;7.70;;;;;;;;;;5072479;28;20803;-69
2023/04/17 12:57:27;;;;;;;61.57;7.83;;;;;;;;;;5071852;28;20574;-69
2023/04/17 12:59:56;;;;;;;60.90;6.60;;;;;;;;;;5071759;28;20474;-69
2023/04/17 13:02:23;;;;;;;62.10;7.17;;;;;;;;;;5072397;28;20491;-69
2023/04/17 13:04:50;;;;;;;60.80;6.30;;;;;;;;;;5069979;28;20454;-69
2023/04/17 13:07:17;;;;;;;61.10;6.27;;;;;;;;;;5072041;28;20455;-69
2023/04/17 13:09:45;;;;;;;62.17;7.63;;;;;;;;;;5071689;28;20467;-69
2023/04/17 13:12:14;;;;;;;59.70;5.97;;;;;;;;;;5071847;28;20458;-70
2023/04/17 13:14:41;;;;;;;60.60;7.00;;;;;;;;;;5072141;28;20546;-69
2023/04/17 13:17:09;;;;;;;60.60;6.43;;;;;;;;;;5071571;28;20509;-69
2023/04/17 13:19:38;;;;;;;61.13;6.50;;;;;;;;;;5071798;28;20475;-69
2023/04/17 13:22:06;;;;;;;61.60;6.67;;;;;;;;;;5068007;28;20443;-69
2023/04/17 13:24:33;;;;;;;62.50;7.10;;;;;;;;;;5051887;28;20952;-69
2023/04/17 13:27:01;;;;;;;62.00;6.60;;;;;;;;;;5051982;28;20941;-69
2023/04/17 13:29:28;;;;;;;60.27;6.00;;;;;;;;;;5051593;28;20479;-69
2023/04/17 13:31:55;;;;;;;60.73;6.40;;;;;;;;;;5051728;28;20455;-69
2023/04/17 13:34:23;;;;;;;61.27;7.13;;;;;;;;;;5052079;28;20448;-69
2023/04/17 13:36:50;;;;;;;62.67;6.53;;;;;;;;;;5051753;28;20492;-68
2023/04/17 13:39:18;;;;;;;60.43;5.83;;;;;;;;;;5051447;28;20503;-69
2023/04/17 13:41:45;;;;;;;61.97;7.47;;;;;;;;;;5051946;28;20445;-69
2023/04/17 13:44:13;;;;;;;60.90;6.47;;;;;;;;;;5052263;28;20455;-68
2023/04/17 13:46:40;;;;;;;62.00;7.40;;;;;;;;;;5052043;28;20441;-68
2023/04/17 13:49:07;;;;;;;64.67;8.63;;;;;;;;;;5051662;28;20476;-68
2023/04/17 13:51:36;;;;;;;62.60;6.77;;;;;;;;;;5051886;28;20941;-68
2023/04/17 13:54:03;;;;;;;62.40;8.17;;;;;;;;;;5051814;28;20941;-68
2023/04/17 13:56:30;;;;;;;60.40;6.30;;;;;;;;;;5051704;28;20487;-68
2023/04/17 13:58:57;;;;;;;61.10;6.10;;;;;;;;;;5051046;28;20470;-69
2023/04/17 14:01:24;;;;;;;61.00;6.10;;;;;;;;;;5051525;28;20448;-68
2023/04/17 14:03:51;;;;;;;62.87;6.13;;;;;;;;;;5051748;28;20454;-69
2023/04/17 14:06:19;;;;;;;62.37;7.07;;;;;;;;;;5051879;28;20467;-68
2023/04/17 14:08:47;;;;;;;62.50;6.97;;;;;;;;;;5051259;28;20468;-68
2023/04/17 14:11:16;;;;;;;60.73;6.70;;;;;;;;;;5051567;28;20452;-68
2023/04/17 14:13:43;;;;;;;61.37;6.90;;;;;;;;;;5051514;28;20452;-69
2023/04/17 14:16:10;;;;;;;65.23;7.10;;;;;;;;;;5051739;28;20484;-68
2023/04/17 14:18:37;;;;;;;61.17;6.43;;;;;;;;;;5051225;28;20992;-68
2023/04/17 14:21:04;;;;;;;61.03;5.97;;;;;;;;;;5051802;28;20453;-69
2023/04/17 14:23:31;;;;;;;62.27;5.80;;;;;;;;;;5051463;28;20468;-68
2023/04/17 14:26:00;;;;;;;61.03;6.47;;;;;;;;;;5051633;28;20454;-68